Artesia Camp, New Mexico
Current Conditions -  °F | °C
As of 11:35 AM on Sunday 21 Dec 2014 (Local Time) from KALM Reporting Station
Clear Clear  
Wind Chill: 48°   Ceiling: Unl
Heat Index: 48°   Visibility: 10mi
Dew Point: 28°   Wind: 0mph
Humidity: 46%   Direction: NA
Pressure: 30.04"   Gusts: NA
Location:  32.7847°N, 105.644°W
Report Text: KALM 211835Z AUTO 00000KT 10SM CLR 09/M02 A3004 RMK AO2
Loading
Personal Weather Stations






























Interactive Weather Map New forecast layout! Learn more

10-Day Weather Forecast

Advertisements
Track Severe Weather on mobile